sensor_id;sensor_type;location;lat;lon;timestamp;P1;durP1;ratioP1;P2;durP2;ratioP2
7104;SDS011;3594;42.152;24.714;2022-07-23T00:01:06;9.70;;;5.28;;
7104;SDS011;3594;42.152;24.714;2022-07-23T00:03:33;7.82;;;5.30;;
7104;SDS011;3594;42.152;24.714;2022-07-23T00:06:03;8.40;;;4.35;;
7104;SDS011;3594;42.152;24.714;2022-07-23T00:08:31;8.20;;;5.32;;
7104;SDS011;3594;42.152;24.714;2022-07-23T00:10:56;8.30;;;5.38;;
7104;SDS011;3594;42.152;24.714;2022-07-23T00:13:24;7.60;;;4.70;;
7104;SDS011;3594;42.152;24.714;2022-07-23T00:15:50;9.40;;;5.50;;
7104;SDS011;3594;42.152;24.714;2022-07-23T00:18:17;7.45;;;4.72;;
7104;SDS011;3594;42.152;24.714;2022-07-23T00:20:47;7.13;;;4.63;;
7104;SDS011;3594;42.152;24.714;2022-07-23T00:23:13;8.20;;;5.35;;
7104;SDS011;3594;42.152;24.714;2022-07-23T00:25:45;11.38;;;5.18;;
7104;SDS011;3594;42.152;24.714;2022-07-23T00:28:11;7.75;;;4.90;;
7104;SDS011;3594;42.152;24.714;2022-07-23T00:30:38;6.38;;;4.50;;
7104;SDS011;3594;42.152;24.714;2022-07-23T00:33:07;7.50;;;4.93;;
7104;SDS011;3594;42.152;24.714;2022-07-23T00:35:35;9.90;;;5.03;;
7104;SDS011;3594;42.152;24.714;2022-07-23T00:38:06;10.43;;;4.85;;
7104;SDS011;3594;42.152;24.714;2022-07-23T00:40:37;9.93;;;5.78;;
7104;SDS011;3594;42.152;24.714;2022-07-23T00:43:03;13.52;;;5.93;;
7104;SDS011;3594;42.152;24.714;2022-07-23T00:45:31;9.65;;;5.72;;
7104;SDS011;3594;42.152;24.714;2022-07-23T00:47:57;8.73;;;5.00;;
7104;SDS011;3594;42.152;24.714;2022-07-23T00:50:23;8.38;;;5.05;;
7104;SDS011;3594;42.152;24.714;2022-07-23T00:52:49;11.75;;;6.65;;
7104;SDS011;3594;42.152;24.714;2022-07-23T00:55:17;7.97;;;5.05;;
7104;SDS011;3594;42.152;24.714;2022-07-23T00:57:43;8.27;;;5.03;;
7104;SDS011;3594;42.152;24.714;2022-07-23T01:00:11;8.63;;;4.95;;
7104;SDS011;3594;42.152;24.714;2022-07-23T01:02:38;7.75;;;4.53;;
7104;SDS011;3594;42.152;24.714;2022-07-23T01:05:06;9.05;;;4.80;;
7104;SDS011;3594;42.152;24.714;2022-07-23T01:07:33;8.43;;;4.70;;
7104;SDS011;3594;42.152;24.714;2022-07-23T01:09:59;9.32;;;4.90;;
7104;SDS011;3594;42.152;24.714;2022-07-23T01:12:25;7.30;;;4.60;;
7104;SDS011;3594;42.152;24.714;2022-07-23T01:14:54;10.50;;;5.13;;
7104;SDS011;3594;42.152;24.714;2022-07-23T01:17:23;7.07;;;4.50;;
7104;SDS011;3594;42.152;24.714;2022-07-23T01:19:49;8.38;;;4.55;;
7104;SDS011;3594;42.152;24.714;2022-07-23T01:22:15;8.38;;;5.00;;
7104;SDS011;3594;42.152;24.714;2022-07-23T01:24:43;10.43;;;5.53;;
7104;SDS011;3594;42.152;24.714;2022-07-23T01:27:08;9.02;;;5.10;;
7104;SDS011;3594;42.152;24.714;2022-07-23T01:29:34;9.32;;;5.05;;
7104;SDS011;3594;42.152;24.714;2022-07-23T01:31:59;7.22;;;4.18;;
7104;SDS011;3594;42.152;24.714;2022-07-23T01:34:25;11.13;;;6.07;;
7104;SDS011;3594;42.152;24.714;2022-07-23T01:36:50;11.85;;;6.57;;
7104;SDS011;3594;42.152;24.714;2022-07-23T01:39:16;14.98;;;7.15;;
7104;SDS011;3594;42.152;24.714;2022-07-23T01:41:41;14.25;;;7.47;;
7104;SDS011;3594;42.152;24.714;2022-07-23T01:44:07;19.02;;;8.10;;
7104;SDS011;3594;42.152;24.714;2022-07-23T01:46:32;12.55;;;7.65;;
7104;SDS011;3594;42.152;24.714;2022-07-23T01:48:58;14.70;;;7.63;;
7104;SDS011;3594;42.152;24.714;2022-07-23T01:51:23;12.57;;;7.18;;
7104;SDS011;3594;42.152;24.714;2022-07-23T01:53:49;13.27;;;7.53;;
7104;SDS011;3594;42.152;24.714;2022-07-23T01:56:14;16.50;;;8.52;;
7104;SDS011;3594;42.152;24.714;2022-07-23T01:58:40;14.77;;;8.10;;
7104;SDS011;3594;42.152;24.714;2022-07-23T02:01:05;14.15;;;7.40;;
7104;SDS011;3594;42.152;24.714;2022-07-23T02:03:31;13.27;;;7.88;;
7104;SDS011;3594;42.152;24.714;2022-07-23T02:05:56;11.98;;;7.32;;
7104;SDS011;3594;42.152;24.714;2022-07-23T02:08:22;14.82;;;8.00;;
7104;SDS011;3594;42.152;24.714;2022-07-23T02:10:48;14.02;;;7.97;;
7104;SDS011;3594;42.152;24.714;2022-07-23T02:13:13;16.73;;;7.57;;
7104;SDS011;3594;42.152;24.714;2022-07-23T02:15:39;15.95;;;8.23;;
7104;SDS011;3594;42.152;24.714;2022-07-23T02:18:05;12.35;;;7.47;;
7104;SDS011;3594;42.152;24.714;2022-07-23T02:20:30;13.80;;;7.45;;
7104;SDS011;3594;42.152;24.714;2022-07-23T02:22:56;16.33;;;8.52;;
7104;SDS011;3594;42.152;24.714;2022-07-23T02:25:22;15.68;;;7.55;;
7104;SDS011;3594;42.152;24.714;2022-07-23T02:27:47;13.20;;;7.93;;
7104;SDS011;3594;42.152;24.714;2022-07-23T02:30:12;16.80;;;7.72;;
7104;SDS011;3594;42.152;24.714;2022-07-23T02:32:38;17.13;;;7.95;;
7104;SDS011;3594;42.152;24.714;2022-07-23T02:35:05;14.75;;;8.15;;
7104;SDS011;3594;42.152;24.714;2022-07-23T02:37:31;12.27;;;7.22;;
7104;SDS011;3594;42.152;24.714;2022-07-23T02:39:57;14.75;;;8.25;;
7104;SDS011;3594;42.152;24.714;2022-07-23T02:42:23;15.80;;;8.77;;
7104;SDS011;3594;42.152;24.714;2022-07-23T02:44:49;15.48;;;7.82;;
7104;SDS011;3594;42.152;24.714;2022-07-23T02:47:15;12.45;;;7.65;;
7104;SDS011;3594;42.152;24.714;2022-07-23T02:49:41;15.65;;;7.68;;
7104;SDS011;3594;42.152;24.714;2022-07-23T02:52:06;12.13;;;7.53;;
7104;SDS011;3594;42.152;24.714;2022-07-23T02:54:33;16.27;;;7.68;;
7104;SDS011;3594;42.152;24.714;2022-07-23T02:56:58;16.27;;;8.05;;
7104;SDS011;3594;42.152;24.714;2022-07-23T02:59:23;12.73;;;7.63;;
7104;SDS011;3594;42.152;24.714;2022-07-23T03:01:49;17.20;;;8.20;;
7104;SDS011;3594;42.152;24.714;2022-07-23T03:04:14;22.88;;;9.23;;
7104;SDS011;3594;42.152;24.714;2022-07-23T03:06:40;13.65;;;7.57;;
7104;SDS011;3594;42.152;24.714;2022-07-23T03:09:05;12.20;;;7.00;;
7104;SDS011;3594;42.152;24.714;2022-07-23T03:11:31;15.38;;;7.55;;
7104;SDS011;3594;42.152;24.714;2022-07-23T03:13:56;14.07;;;6.88;;
7104;SDS011;3594;42.152;24.714;2022-07-23T03:16:22;15.30;;;7.30;;
7104;SDS011;3594;42.152;24.714;2022-07-23T03:18:47;15.38;;;7.65;;
7104;SDS011;3594;42.152;24.714;2022-07-23T03:21:13;12.32;;;7.00;;
7104;SDS011;3594;42.152;24.714;2022-07-23T03:23:38;16.10;;;7.40;;
7104;SDS011;3594;42.152;24.714;2022-07-23T03:26:04;16.15;;;7.18;;
7104;SDS011;3594;42.152;24.714;2022-07-23T03:28:30;14.65;;;6.85;;
7104;SDS011;3594;42.152;24.714;2022-07-23T03:30:56;13.65;;;7.28;;
7104;SDS011;3594;42.152;24.714;2022-07-23T03:33:21;10.00;;;6.35;;
7104;SDS011;3594;42.152;24.714;2022-07-23T03:35:47;15.27;;;6.80;;
7104;SDS011;3594;42.152;24.714;2022-07-23T03:38:13;14.00;;;6.75;;
7104;SDS011;3594;42.152;24.714;2022-07-23T03:40:39;11.32;;;6.18;;
7104;SDS011;3594;42.152;24.714;2022-07-23T03:43:04;12.60;;;7.65;;
7104;SDS011;3594;42.152;24.714;2022-07-23T03:45:30;10.07;;;6.25;;
7104;SDS011;3594;42.152;24.714;2022-07-23T03:47:56;12.25;;;6.75;;
7104;SDS011;3594;42.152;24.714;2022-07-23T03:50:22;10.90;;;6.20;;
7104;SDS011;3594;42.152;24.714;2022-07-23T03:52:47;12.50;;;6.90;;
7104;SDS011;3594;42.152;24.714;2022-07-23T03:55:13;13.75;;;7.13;;
7104;SDS011;3594;42.152;24.714;2022-07-23T03:57:39;12.88;;;7.10;;
7104;SDS011;3594;42.152;24.714;2022-07-23T04:00:05;10.02;;;6.18;;
7104;SDS011;3594;42.152;24.714;2022-07-23T04:02:33;10.75;;;6.40;;
7104;SDS011;3594;42.152;24.714;2022-07-23T04:04:59;12.73;;;6.57;;
7104;SDS011;3594;42.152;24.714;2022-07-23T04:07:25;10.82;;;6.18;;
7104;SDS011;3594;42.152;24.714;2022-07-23T04:09:51;10.38;;;6.20;;
7104;SDS011;3594;42.152;24.714;2022-07-23T04:12:16;9.68;;;6.60;;
7104;SDS011;3594;42.152;24.714;2022-07-23T04:14:42;10.38;;;6.13;;
7104;SDS011;3594;42.152;24.714;2022-07-23T04:17:08;11.73;;;6.57;;
7104;SDS011;3594;42.152;24.714;2022-07-23T04:19:33;11.13;;;6.20;;
7104;SDS011;3594;42.152;24.714;2022-07-23T04:22:05;10.15;;;6.22;;
7104;SDS011;3594;42.152;24.714;2022-07-23T04:24:30;11.13;;;6.63;;
7104;SDS011;3594;42.152;24.714;2022-07-23T04:26:56;12.88;;;6.20;;
7104;SDS011;3594;42.152;24.714;2022-07-23T04:29:21;10.73;;;6.70;;
7104;SDS011;3594;42.152;24.714;2022-07-23T04:31:47;9.40;;;6.30;;
7104;SDS011;3594;42.152;24.714;2022-07-23T04:34:12;9.93;;;6.55;;
7104;SDS011;3594;42.152;24.714;2022-07-23T04:36:38;12.23;;;6.47;;
7104;SDS011;3594;42.152;24.714;2022-07-23T04:39:03;9.45;;;6.80;;
7104;SDS011;3594;42.152;24.714;2022-07-23T04:41:28;13.10;;;7.03;;
7104;SDS011;3594;42.152;24.714;2022-07-23T04:43:54;10.80;;;6.57;;
7104;SDS011;3594;42.152;24.714;2022-07-23T04:46:19;10.90;;;5.80;;
7104;SDS011;3594;42.152;24.714;2022-07-23T04:48:44;11.07;;;6.38;;
7104;SDS011;3594;42.152;24.714;2022-07-23T04:51:10;14.98;;;7.00;;
7104;SDS011;3594;42.152;24.714;2022-07-23T04:53:36;11.35;;;6.45;;
7104;SDS011;3594;42.152;24.714;2022-07-23T04:56:03;11.10;;;6.78;;
7104;SDS011;3594;42.152;24.714;2022-07-23T04:58:29;11.27;;;6.40;;
7104;SDS011;3594;42.152;24.714;2022-07-23T05:00:54;15.32;;;7.38;;
7104;SDS011;3594;42.152;24.714;2022-07-23T05:03:22;13.88;;;6.93;;
7104;SDS011;3594;42.152;24.714;2022-07-23T05:05:48;17.40;;;8.20;;
7104;SDS011;3594;42.152;24.714;2022-07-23T05:08:13;11.90;;;7.22;;
7104;SDS011;3594;42.152;24.714;2022-07-23T05:10:38;12.98;;;7.18;;
7104;SDS011;3594;42.152;24.714;2022-07-23T05:13:04;13.05;;;7.47;;
7104;SDS011;3594;42.152;24.714;2022-07-23T05:15:29;14.07;;;8.02;;
7104;SDS011;3594;42.152;24.714;2022-07-23T05:17:55;14.13;;;7.13;;
7104;SDS011;3594;42.152;24.714;2022-07-23T05:20:21;12.40;;;7.15;;
7104;SDS011;3594;42.152;24.714;2022-07-23T05:22:46;18.52;;;7.82;;
7104;SDS011;3594;42.152;24.714;2022-07-23T05:25:12;13.90;;;7.10;;
7104;SDS011;3594;42.152;24.714;2022-07-23T05:27:37;16.45;;;8.13;;
7104;SDS011;3594;42.152;24.714;2022-07-23T05:30:03;12.25;;;6.80;;
7104;SDS011;3594;42.152;24.714;2022-07-23T05:32:30;19.02;;;7.35;;
7104;SDS011;3594;42.152;24.714;2022-07-23T05:34:57;12.95;;;7.47;;
7104;SDS011;3594;42.152;24.714;2022-07-23T05:37:22;13.80;;;7.38;;
7104;SDS011;3594;42.152;24.714;2022-07-23T05:39:48;15.30;;;7.63;;
7104;SDS011;3594;42.152;24.714;2022-07-23T05:42:14;13.38;;;7.53;;
7104;SDS011;3594;42.152;24.714;2022-07-23T05:44:40;13.07;;;7.90;;
7104;SDS011;3594;42.152;24.714;2022-07-23T05:47:05;13.15;;;7.70;;
7104;SDS011;3594;42.152;24.714;2022-07-23T05:49:31;11.68;;;6.90;;
7104;SDS011;3594;42.152;24.714;2022-07-23T05:51:56;13.68;;;7.03;;
7104;SDS011;3594;42.152;24.714;2022-07-23T05:54:22;11.57;;;6.85;;
7104;SDS011;3594;42.152;24.714;2022-07-23T05:56:47;12.77;;;7.15;;
7104;SDS011;3594;42.152;24.714;2022-07-23T05:59:13;15.50;;;7.13;;
7104;SDS011;3594;42.152;24.714;2022-07-23T06:01:39;14.68;;;7.68;;
7104;SDS011;3594;42.152;24.714;2022-07-23T06:04:05;11.00;;;6.70;;
7104;SDS011;3594;42.152;24.714;2022-07-23T06:06:31;10.50;;;6.55;;
7104;SDS011;3594;42.152;24.714;2022-07-23T06:08:56;12.13;;;6.25;;
7104;SDS011;3594;42.152;24.714;2022-07-23T06:11:22;9.93;;;5.60;;
7104;SDS011;3594;42.152;24.714;2022-07-23T06:13:47;11.48;;;6.05;;
7104;SDS011;3594;42.152;24.714;2022-07-23T06:16:13;9.00;;;5.70;;
7104;SDS011;3594;42.152;24.714;2022-07-23T06:18:38;8.35;;;5.53;;
7104;SDS011;3594;42.152;24.714;2022-07-23T06:21:04;7.50;;;5.15;;
7104;SDS011;3594;42.152;24.714;2022-07-23T06:23:29;11.57;;;5.72;;
7104;SDS011;3594;42.152;24.714;2022-07-23T06:25:55;8.25;;;5.28;;
7104;SDS011;3594;42.152;24.714;2022-07-23T06:28:20;11.80;;;5.15;;
7104;SDS011;3594;42.152;24.714;2022-07-23T06:30:46;9.75;;;4.43;;
7104;SDS011;3594;42.152;24.714;2022-07-23T06:33:11;6.45;;;4.75;;
7104;SDS011;3594;42.152;24.714;2022-07-23T06:35:37;7.20;;;4.60;;
7104;SDS011;3594;42.152;24.714;2022-07-23T06:38:03;6.85;;;4.70;;
7104;SDS011;3594;42.152;24.714;2022-07-23T06:40:28;6.88;;;4.28;;
7104;SDS011;3594;42.152;24.714;2022-07-23T06:42:54;5.97;;;4.15;;
7104;SDS011;3594;42.152;24.714;2022-07-23T06:45:20;9.32;;;4.90;;
7104;SDS011;3594;42.152;24.714;2022-07-23T06:47:46;6.03;;;4.20;;
7104;SDS011;3594;42.152;24.714;2022-07-23T06:50:11;5.90;;;4.60;;
7104;SDS011;3594;42.152;24.714;2022-07-23T06:52:37;7.93;;;5.20;;
7104;SDS011;3594;42.152;24.714;2022-07-23T06:55:02;7.45;;;4.35;;
7104;SDS011;3594;42.152;24.714;2022-07-23T06:57:28;8.02;;;4.35;;
7104;SDS011;3594;42.152;24.714;2022-07-23T06:59:53;6.28;;;4.30;;
7104;SDS011;3594;42.152;24.714;2022-07-23T07:02:19;7.63;;;4.63;;
7104;SDS011;3594;42.152;24.714;2022-07-23T07:04:44;8.93;;;4.50;;
7104;SDS011;3594;42.152;24.714;2022-07-23T07:07:10;8.05;;;4.88;;
7104;SDS011;3594;42.152;24.714;2022-07-23T07:09:36;9.27;;;4.60;;
7104;SDS011;3594;42.152;24.714;2022-07-23T07:12:03;7.78;;;4.47;;
7104;SDS011;3594;42.152;24.714;2022-07-23T07:14:29;8.40;;;4.70;;
7104;SDS011;3594;42.152;24.714;2022-07-23T07:16:54;8.10;;;4.60;;
7104;SDS011;3594;42.152;24.714;2022-07-23T07:19:20;8.45;;;4.35;;
7104;SDS011;3594;42.152;24.714;2022-07-23T07:21:45;7.03;;;4.35;;
7104;SDS011;3594;42.152;24.714;2022-07-23T07:24:10;9.23;;;4.50;;
7104;SDS011;3594;42.152;24.714;2022-07-23T07:26:36;5.85;;;4.20;;
7104;SDS011;3594;42.152;24.714;2022-07-23T07:29:03;6.80;;;4.55;;
7104;SDS011;3594;42.152;24.714;2022-07-23T07:31:29;7.70;;;4.30;;
7104;SDS011;3594;42.152;24.714;2022-07-23T07:33:54;9.90;;;4.60;;
7104;SDS011;3594;42.152;24.714;2022-07-23T07:36:22;6.43;;;4.00;;
7104;SDS011;3594;42.152;24.714;2022-07-23T07:38:48;6.55;;;3.65;;
7104;SDS011;3594;42.152;24.714;2022-07-23T07:41:13;7.65;;;4.10;;
7104;SDS011;3594;42.152;24.714;2022-07-23T07:43:39;8.95;;;4.75;;
7104;SDS011;3594;42.152;24.714;2022-07-23T07:46:05;6.10;;;3.78;;
7104;SDS011;3594;42.152;24.714;2022-07-23T07:48:35;5.90;;;3.80;;
7104;SDS011;3594;42.152;24.714;2022-07-23T07:51:01;9.18;;;3.78;;
7104;SDS011;3594;42.152;24.714;2022-07-23T07:53:27;9.40;;;4.40;;
7104;SDS011;3594;42.152;24.714;2022-07-23T07:55:53;5.68;;;4.10;;
7104;SDS011;3594;42.152;24.714;2022-07-23T07:58:18;8.35;;;4.30;;
7104;SDS011;3594;42.152;24.714;2022-07-23T08:00:43;5.35;;;3.85;;
7104;SDS011;3594;42.152;24.714;2022-07-23T08:03:09;6.93;;;4.10;;
7104;SDS011;3594;42.152;24.714;2022-07-23T08:05:34;5.57;;;3.60;;
7104;SDS011;3594;42.152;24.714;2022-07-23T08:08:00;6.60;;;4.38;;
7104;SDS011;3594;42.152;24.714;2022-07-23T08:10:26;4.55;;;3.58;;
7104;SDS011;3594;42.152;24.714;2022-07-23T08:12:53;5.35;;;3.78;;
7104;SDS011;3594;42.152;24.714;2022-07-23T08:15:25;6.03;;;3.80;;
7104;SDS011;3594;42.152;24.714;2022-07-23T08:17:52;5.25;;;3.53;;
7104;SDS011;3594;42.152;24.714;2022-07-23T08:20:19;6.65;;;4.03;;
7104;SDS011;3594;42.152;24.714;2022-07-23T08:22:49;7.90;;;3.95;;
7104;SDS011;3594;42.152;24.714;2022-07-23T08:25:20;5.22;;;3.53;;
7104;SDS011;3594;42.152;24.714;2022-07-23T08:27:48;5.50;;;3.70;;
7104;SDS011;3594;42.152;24.714;2022-07-23T08:30:14;6.00;;;3.55;;
7104;SDS011;3594;42.152;24.714;2022-07-23T08:32:51;6.93;;;3.60;;
7104;SDS011;3594;42.152;24.714;2022-07-23T08:35:26;5.10;;;3.35;;
7104;SDS011;3594;42.152;24.714;2022-07-23T08:37:59;4.38;;;3.40;;
7104;SDS011;3594;42.152;24.714;2022-07-23T08:40:27;4.45;;;3.20;;
7104;SDS011;3594;42.152;24.714;2022-07-23T08:42:54;5.40;;;3.60;;
7104;SDS011;3594;42.152;24.714;2022-07-23T08:45:20;5.63;;;3.42;;
7104;SDS011;3594;42.152;24.714;2022-07-23T08:47:50;7.70;;;3.97;;
7104;SDS011;3594;42.152;24.714;2022-07-23T08:50:18;4.40;;;3.40;;
7104;SDS011;3594;42.152;24.714;2022-07-23T08:52:44;6.70;;;3.53;;
7104;SDS011;3594;42.152;24.714;2022-07-23T08:55:10;5.68;;;3.45;;
7104;SDS011;3594;42.152;24.714;2022-07-23T08:57:36;5.32;;;3.53;;
7104;SDS011;3594;42.152;24.714;2022-07-23T09:00:02;5.43;;;3.83;;
7104;SDS011;3594;42.152;24.714;2022-07-23T09:02:29;5.97;;;3.95;;
7104;SDS011;3594;42.152;24.714;2022-07-23T09:04:54;6.80;;;3.58;;
7104;SDS011;3594;42.152;24.714;2022-07-23T09:07:20;5.10;;;3.75;;
7104;SDS011;3594;42.152;24.714;2022-07-23T09:09:45;6.38;;;3.83;;
7104;SDS011;3594;42.152;24.714;2022-07-23T09:12:11;6.93;;;3.90;;
7104;SDS011;3594;42.152;24.714;2022-07-23T09:14:37;5.22;;;3.85;;
7104;SDS011;3594;42.152;24.714;2022-07-23T09:17:13;5.25;;;3.83;;
7104;SDS011;3594;42.152;24.714;2022-07-23T09:19:42;8.40;;;4.05;;
7104;SDS011;3594;42.152;24.714;2022-07-23T09:22:19;5.18;;;3.50;;
7104;SDS011;3594;42.152;24.714;2022-07-23T09:27:48;5.35;;;3.53;;
7104;SDS011;3594;42.152;24.714;2022-07-23T09:30:14;5.25;;;3.58;;
7104;SDS011;3594;42.152;24.714;2022-07-23T09:32:40;5.22;;;3.72;;
7104;SDS011;3594;42.152;24.714;2022-07-23T09:35:06;5.65;;;4.00;;
7104;SDS011;3594;42.152;24.714;2022-07-23T09:37:32;4.78;;;3.38;;
7104;SDS011;3594;42.152;24.714;2022-07-23T09:40:08;6.13;;;3.83;;
7104;SDS011;3594;42.152;24.714;2022-07-23T09:42:33;4.28;;;3.10;;
7104;SDS011;3594;42.152;24.714;2022-07-23T09:44:59;6.93;;;3.60;;
7104;SDS011;3594;42.152;24.714;2022-07-23T09:47:29;5.50;;;3.53;;
7104;SDS011;3594;42.152;24.714;2022-07-23T09:50:06;6.28;;;3.97;;
7104;SDS011;3594;42.152;24.714;2022-07-23T09:52:44;8.27;;;3.42;;
7104;SDS011;3594;42.152;24.714;2022-07-23T09:55:13;5.25;;;3.42;;
7104;SDS011;3594;42.152;24.714;2022-07-23T09:57:42;4.97;;;3.58;;
7104;SDS011;3594;42.152;24.714;2022-07-23T10:00:11;5.05;;;3.40;;
7104;SDS011;3594;42.152;24.714;2022-07-23T10:02:37;6.15;;;3.08;;
7104;SDS011;3594;42.152;24.714;2022-07-23T10:05:03;4.45;;;3.00;;
7104;SDS011;3594;42.152;24.714;2022-07-23T10:07:34;4.47;;;3.03;;
7104;SDS011;3594;42.152;24.714;2022-07-23T10:10:03;4.38;;;3.28;;
7104;SDS011;3594;42.152;24.714;2022-07-23T10:12:30;4.80;;;3.03;;
7104;SDS011;3594;42.152;24.714;2022-07-23T10:14:59;4.78;;;3.17;;
7104;SDS011;3594;42.152;24.714;2022-07-23T10:17:25;4.93;;;3.28;;
7104;SDS011;3594;42.152;24.714;2022-07-23T10:19:53;4.47;;;3.20;;
7104;SDS011;3594;42.152;24.714;2022-07-23T10:22:29;5.20;;;3.05;;
7104;SDS011;3594;42.152;24.714;2022-07-23T10:30:39;5.18;;;3.08;;
7104;SDS011;3594;42.152;24.714;2022-07-23T10:39:17;5.05;;;3.17;;
7104;SDS011;3594;42.152;24.714;2022-07-23T10:41:31;7.28;;;3.38;;
7104;SDS011;3594;42.152;24.714;2022-07-23T10:46:34;4.82;;;3.03;;
7104;SDS011;3594;42.152;24.714;2022-07-23T10:54:44;5.78;;;4.07;;
7104;SDS011;3594;42.152;24.714;2022-07-23T10:57:26;8.18;;;3.70;;
7104;SDS011;3594;42.152;24.714;2022-07-23T11:02:40;4.18;;;3.20;;
7104;SDS011;3594;42.152;24.714;2022-07-23T11:05:08;5.00;;;3.28;;
7104;SDS011;3594;42.152;24.714;2022-07-23T11:10:40;4.28;;;2.83;;
7104;SDS011;3594;42.152;24.714;2022-07-23T11:19:14;9.38;;;3.38;;
7104;SDS011;3594;42.152;24.714;2022-07-23T11:29:49;3.88;;;3.03;;
7104;SDS011;3594;42.152;24.714;2022-07-23T11:34:41;4.38;;;2.88;;
7104;SDS011;3594;42.152;24.714;2022-07-23T11:37:09;5.15;;;3.33;;
7104;SDS011;3594;42.152;24.714;2022-07-23T11:39:52;7.20;;;3.28;;
7104;SDS011;3594;42.152;24.714;2022-07-23T11:42:19;8.13;;;3.35;;
7104;SDS011;3594;42.152;24.714;2022-07-23T11:44:45;5.47;;;3.10;;
7104;SDS011;3594;42.152;24.714;2022-07-23T11:47:12;6.50;;;3.55;;
7104;SDS011;3594;42.152;24.714;2022-07-23T11:49:38;4.28;;;3.17;;
7104;SDS011;3594;42.152;24.714;2022-07-23T11:52:04;4.65;;;3.25;;
7104;SDS011;3594;42.152;24.714;2022-07-23T11:54:46;5.75;;;3.03;;
7104;SDS011;3594;42.152;24.714;2022-07-23T11:57:15;4.45;;;3.10;;
7104;SDS011;3594;42.152;24.714;2022-07-23T11:59:40;7.38;;;3.03;;
7104;SDS011;3594;42.152;24.714;2022-07-23T12:02:07;7.90;;;2.88;;
7104;SDS011;3594;42.152;24.714;2022-07-23T12:04:40;9.70;;;3.42;;
7104;SDS011;3594;42.152;24.714;2022-07-23T12:09:48;5.32;;;2.90;;
7104;SDS011;3594;42.152;24.714;2022-07-23T12:12:14;5.47;;;3.40;;
7104;SDS011;3594;42.152;24.714;2022-07-23T12:14:49;4.55;;;2.90;;
7104;SDS011;3594;42.152;24.714;2022-07-23T12:17:29;5.45;;;3.10;;
7104;SDS011;3594;42.152;24.714;2022-07-23T12:20:01;5.30;;;2.97;;
7104;SDS011;3594;42.152;24.714;2022-07-23T12:22:40;4.32;;;2.97;;
7104;SDS011;3594;42.152;24.714;2022-07-23T12:25:11;4.25;;;3.00;;
7104;SDS011;3594;42.152;24.714;2022-07-23T12:27:39;5.03;;;3.40;;
7104;SDS011;3594;42.152;24.714;2022-07-23T12:30:24;6.65;;;3.30;;
7104;SDS011;3594;42.152;24.714;2022-07-23T12:32:53;5.00;;;3.20;;
7104;SDS011;3594;42.152;24.714;2022-07-23T12:35:20;5.65;;;3.55;;
7104;SDS011;3594;42.152;24.714;2022-07-23T12:37:48;3.60;;;2.92;;
7104;SDS011;3594;42.152;24.714;2022-07-23T12:40:21;4.43;;;3.17;;
7104;SDS011;3594;42.152;24.714;2022-07-23T12:42:55;4.57;;;2.70;;
7104;SDS011;3594;42.152;24.714;2022-07-23T12:45:26;4.50;;;2.95;;
7104;SDS011;3594;42.152;24.714;2022-07-23T12:47:54;5.45;;;3.00;;
7104;SDS011;3594;42.152;24.714;2022-07-23T12:50:33;6.45;;;3.40;;
7104;SDS011;3594;42.152;24.714;2022-07-23T12:53:11;8.10;;;3.42;;
7104;SDS011;3594;42.152;24.714;2022-07-23T12:55:39;7.93;;;3.25;;
7104;SDS011;3594;42.152;24.714;2022-07-23T12:58:09;4.25;;;3.03;;
7104;SDS011;3594;42.152;24.714;2022-07-23T13:00:50;8.43;;;3.40;;
7104;SDS011;3594;42.152;24.714;2022-07-23T13:03:23;5.13;;;3.53;;
7104;SDS011;3594;42.152;24.714;2022-07-23T13:05:53;4.28;;;2.95;;
7104;SDS011;3594;42.152;24.714;2022-07-23T13:08:20;7.82;;;3.28;;
7104;SDS011;3594;42.152;24.714;2022-07-23T13:10:46;5.05;;;3.20;;
7104;SDS011;3594;42.152;24.714;2022-07-23T13:13:13;9.25;;;3.25;;
7104;SDS011;3594;42.152;24.714;2022-07-23T13:15:40;5.65;;;3.00;;
7104;SDS011;3594;42.152;24.714;2022-07-23T13:18:07;5.38;;;3.13;;
7104;SDS011;3594;42.152;24.714;2022-07-23T13:20:32;5.93;;;3.15;;
7104;SDS011;3594;42.152;24.714;2022-07-23T13:22:59;3.67;;;2.85;;
7104;SDS011;3594;42.152;24.714;2022-07-23T13:25:25;5.97;;;3.65;;
7104;SDS011;3594;42.152;24.714;2022-07-23T13:27:51;8.10;;;3.30;;
7104;SDS011;3594;42.152;24.714;2022-07-23T13:30:16;4.40;;;3.20;;
7104;SDS011;3594;42.152;24.714;2022-07-23T13:32:42;5.90;;;3.55;;
7104;SDS011;3594;42.152;24.714;2022-07-23T13:35:08;5.95;;;3.55;;
7104;SDS011;3594;42.152;24.714;2022-07-23T13:37:33;14.73;;;5.70;;
7104;SDS011;3594;42.152;24.714;2022-07-23T13:39:59;10.35;;;5.82;;
7104;SDS011;3594;42.152;24.714;2022-07-23T13:42:27;6.22;;;3.58;;
7104;SDS011;3594;42.152;24.714;2022-07-23T13:44:52;10.18;;;4.55;;
7104;SDS011;3594;42.152;24.714;2022-07-23T13:47:20;8.40;;;5.30;;
7104;SDS011;3594;42.152;24.714;2022-07-23T13:49:46;10.52;;;4.85;;
7104;SDS011;3594;42.152;24.714;2022-07-23T13:52:11;7.75;;;4.22;;
7104;SDS011;3594;42.152;24.714;2022-07-23T13:54:37;6.97;;;3.70;;
7104;SDS011;3594;42.152;24.714;2022-07-23T13:57:02;6.80;;;4.00;;
7104;SDS011;3594;42.152;24.714;2022-07-23T13:59:28;8.57;;;4.05;;
7104;SDS011;3594;42.152;24.714;2022-07-23T14:01:53;6.88;;;3.72;;
7104;SDS011;3594;42.152;24.714;2022-07-23T14:04:20;5.40;;;3.65;;
7104;SDS011;3594;42.152;24.714;2022-07-23T14:06:47;9.55;;;4.10;;
7104;SDS011;3594;42.152;24.714;2022-07-23T14:09:12;8.60;;;4.47;;
7104;SDS011;3594;42.152;24.714;2022-07-23T14:11:38;8.00;;;4.72;;
7104;SDS011;3594;42.152;24.714;2022-07-23T14:14:04;6.15;;;4.40;;
7104;SDS011;3594;42.152;24.714;2022-07-23T14:16:29;8.00;;;4.32;;
7104;SDS011;3594;42.152;24.714;2022-07-23T14:18:55;6.03;;;3.78;;
7104;SDS011;3594;42.152;24.714;2022-07-23T14:21:21;6.25;;;3.80;;
7104;SDS011;3594;42.152;24.714;2022-07-23T14:23:46;11.82;;;5.15;;
7104;SDS011;3594;42.152;24.714;2022-07-23T14:26:12;13.13;;;5.65;;
7104;SDS011;3594;42.152;24.714;2022-07-23T14:28:37;7.70;;;3.75;;
7104;SDS011;3594;42.152;24.714;2022-07-23T14:31:03;6.13;;;3.92;;
7104;SDS011;3594;42.152;24.714;2022-07-23T14:33:28;9.25;;;5.25;;
7104;SDS011;3594;42.152;24.714;2022-07-23T14:35:54;6.35;;;3.70;;
7104;SDS011;3594;42.152;24.714;2022-07-23T14:38:19;5.50;;;3.83;;
7104;SDS011;3594;42.152;24.714;2022-07-23T14:40:45;4.93;;;3.60;;
7104;SDS011;3594;42.152;24.714;2022-07-23T14:43:10;6.50;;;3.58;;
7104;SDS011;3594;42.152;24.714;2022-07-23T14:45:36;7.18;;;3.45;;
7104;SDS011;3594;42.152;24.714;2022-07-23T14:48:01;6.07;;;3.50;;
7104;SDS011;3594;42.152;24.714;2022-07-23T14:50:28;5.32;;;3.17;;
7104;SDS011;3594;42.152;24.714;2022-07-23T14:52:56;6.15;;;2.95;;
7104;SDS011;3594;42.152;24.714;2022-07-23T14:55:22;7.45;;;3.20;;
7104;SDS011;3594;42.152;24.714;2022-07-23T14:57:48;10.32;;;3.50;;
7104;SDS011;3594;42.152;24.714;2022-07-23T15:00:13;6.80;;;3.30;;
7104;SDS011;3594;42.152;24.714;2022-07-23T15:02:39;5.82;;;3.33;;
7104;SDS011;3594;42.152;24.714;2022-07-23T15:05:05;6.07;;;3.45;;
7104;SDS011;3594;42.152;24.714;2022-07-23T15:07:31;4.40;;;3.25;;
7104;SDS011;3594;42.152;24.714;2022-07-23T15:09:56;8.00;;;3.08;;
7104;SDS011;3594;42.152;24.714;2022-07-23T15:12:23;4.57;;;3.30;;
7104;SDS011;3594;42.152;24.714;2022-07-23T15:14:48;7.20;;;3.47;;
7104;SDS011;3594;42.152;24.714;2022-07-23T15:17:14;6.30;;;3.80;;
7104;SDS011;3594;42.152;24.714;2022-07-23T15:19:39;8.45;;;3.30;;
7104;SDS011;3594;42.152;24.714;2022-07-23T15:22:05;6.28;;;3.53;;
7104;SDS011;3594;42.152;24.714;2022-07-23T15:24:30;8.98;;;3.17;;
7104;SDS011;3594;42.152;24.714;2022-07-23T15:26:57;4.75;;;3.33;;
7104;SDS011;3594;42.152;24.714;2022-07-23T15:29:23;6.50;;;3.55;;
7104;SDS011;3594;42.152;24.714;2022-07-23T15:31:49;6.30;;;3.55;;
7104;SDS011;3594;42.152;24.714;2022-07-23T15:34:15;5.22;;;3.25;;
7104;SDS011;3594;42.152;24.714;2022-07-23T15:36:40;7.53;;;3.53;;
7104;SDS011;3594;42.152;24.714;2022-07-23T15:39:06;10.07;;;4.63;;
7104;SDS011;3594;42.152;24.714;2022-07-23T15:41:31;12.90;;;5.10;;